Time;durP1;ratioP1;P1;durP2;ratioP2;P2;SDS_P1;SDS_P2;PMS_P1;PMS_P2;Temp;Humidity;BMP_temperature;BMP_pressure;BME280_temperature;BME280_humidity;BME280_pressure;Samples;Min_cycle;Max_cycle;Signal;HPM_P1;HPM_P2
2021/11/17 02:28:19;;;;;;;13.07;8.20;;;5.80;99.90;;;;;;4985213;28;20085;-66
2021/11/17 02:31:05;;;;;;;16.38;10.10;;;5.70;99.90;;;;;;4991328;28;20114;-64
2021/11/17 02:33:38;;;;;;;15.68;11.18;;;5.70;99.90;;;;;;4988876;28;20097;-66
2021/11/17 02:36:36;;;;;;;13.88;10.00;;;5.70;99.90;;;;;;4990132;28;20041;-65
2021/11/17 02:39:24;;;;;;;16.90;10.63;;;5.70;99.90;;;;;;4986782;28;20378;-65
2021/11/17 02:42:12;;;;;;;18.25;11.43;;;5.70;99.90;;;;;;4983803;28;20042;-65
2021/11/17 02:44:54;;;;;;;14.07;10.13;;;5.70;99.90;;;;;;4987669;28;20137;-65
2021/11/17 02:47:35;;;;;;;18.40;11.00;;;5.60;99.90;;;;;;5000255;28;20441;-70
2021/11/17 02:50:13;;;;;;;16.83;9.63;;;5.60;99.90;;;;;;4988048;28;20073;-67
2021/11/17 02:52:43;;;;;;;18.27;12.30;;;5.60;99.90;;;;;;4989453;28;20548;-68
2021/11/17 02:55:32;;;;;;;17.60;11.35;;;5.60;99.90;;;;;;4984925;28;20441;-66
2021/11/17 02:58:40;;;;;;;17.48;12.55;;;5.60;99.90;;;;;;4990975;28;20738;-65
2021/11/17 03:01:17;;;;;;;18.75;13.35;;;5.60;99.90;;;;;;4983636;28;20062;-67
2021/11/17 03:03:44;;;;;;;19.33;12.38;;;5.60;99.90;;;;;;4989985;28;20054;-65
2021/11/17 03:06:23;;;;;;;23.27;14.25;;;5.60;99.90;;;;;;4987960;28;20439;-67
2021/11/17 03:09:07;;;;;;;19.85;13.75;;;5.60;99.90;;;;;;4987630;28;20052;-64
2021/11/17 03:11:55;;;;;;;19.30;12.20;;;5.60;99.90;;;;;;4987844;28;20066;-74
2021/11/17 03:14:52;;;;;;;18.13;12.13;;;5.60;99.90;;;;;;4989009;28;20120;-66
2021/11/17 03:17:47;;;;;;;21.58;11.48;;;5.60;99.90;;;;;;4987412;28;20429;-68
2021/11/17 03:20:17;;;;;;;20.58;12.98;;;5.60;99.90;;;;;;4982750;28;20376;-66
2021/11/17 03:22:54;;;;;;;20.60;12.85;;;5.60;99.90;;;;;;4984447;28;20086;-66
2021/11/17 03:25:49;;;;;;;20.33;13.20;;;5.60;99.90;;;;;;4995302;28;20049;-65
2021/11/17 03:29:03;;;;;;;18.73;14.63;;;5.60;99.90;;;;;;4980803;28;20098;-66
2021/11/17 03:31:44;;;;;;;21.77;13.98;;;5.60;99.90;;;;;;4975386;28;20511;-71
2021/11/17 03:34:33;;;;;;;17.95;12.85;;;5.60;99.90;;;;;;4987690;28;20141;-70
2021/11/17 03:37:03;;;;;;;24.25;14.43;;;5.60;99.90;;;;;;4981895;28;20049;-69
2021/11/17 03:39:51;;;;;;;21.42;15.07;;;5.60;99.90;;;;;;4987473;28;20089;-64
2021/11/17 03:42:24;;;;;;;20.77;14.45;;;5.60;99.90;;;;;;4985626;28;20126;-66
2021/11/17 03:45:27;;;;;;;24.45;16.05;;;5.60;99.90;;;;;;4989659;28;20039;-65
2021/11/17 03:47:53;;;;;;;22.88;13.93;;;5.60;99.90;;;;;;4976340;28;20041;-65
2021/11/17 03:50:36;;;;;;;22.27;14.60;;;5.60;99.90;;;;;;4986223;28;20247;-72
2021/11/17 03:53:21;;;;;;;26.15;16.42;;;5.60;99.90;;;;;;4990403;28;20608;-64
2021/11/17 03:56:01;;;;;;;23.25;14.13;;;5.60;99.90;;;;;;4988127;28;20141;-68
2021/11/17 03:58:37;;;;;;;25.15;16.60;;;5.60;99.90;;;;;;4977940;28;20042;-65
2021/11/17 04:01:10;;;;;;;22.80;13.32;;;5.60;99.90;;;;;;4983074;28;20392;-67
2021/11/17 04:03:43;;;;;;;21.08;14.63;;;5.60;99.90;;;;;;4988216;28;20136;-69
2021/11/17 04:06:34;;;;;;;25.98;15.95;;;5.60;99.90;;;;;;4981234;28;20050;-73
2021/11/17 04:09:39;;;;;;;22.00;15.55;;;5.60;99.90;;;;;;4982722;28;20080;-65
2021/11/17 04:12:12;;;;;;;24.95;17.08;;;5.60;99.90;;;;;;4978563;28;20058;-65
2021/11/17 04:14:51;;;;;;;23.02;14.43;;;5.60;99.90;;;;;;4985535;28;20419;-70
2021/11/17 04:17:30;;;;;;;25.80;15.20;;;5.60;99.90;;;;;;4984665;28;20042;-68
2021/11/17 04:20:12;;;;;;;28.85;16.17;;;5.60;99.90;;;;;;4982520;28;20100;-65
2021/11/17 04:22:57;;;;;;;22.30;14.85;;;5.60;99.90;;;;;;4981293;28;20112;-66
2021/11/17 04:25:36;;;;;;;26.50;16.80;;;5.60;99.90;;;;;;4987646;28;20141;-67
2021/11/17 04:28:22;;;;;;;26.10;17.27;;;5.60;99.90;;;;;;4985657;28;20090;-65
2021/11/17 04:31:21;;;;;;;23.63;15.95;;;5.60;99.90;;;;;;4979647;28;20121;-65
2021/11/17 04:33:54;;;;;;;28.13;17.55;;;5.60;99.90;;;;;;4985041;28;20045;-65
2021/11/17 04:36:46;;;;;;;26.42;16.33;;;5.60;99.90;;;;;;4986350;28;20145;-71
2021/11/17 04:39:20;;;;;;;30.45;16.88;;;5.60;99.90;;;;;;4987318;28;21348;-68
2021/11/17 04:42:12;;;;;;;26.63;17.45;;;5.50;99.90;;;;;;4982028;28;20116;-64
2021/11/17 04:44:50;;;;;;;30.50;17.45;;;5.50;99.90;;;;;;4981038;28;20066;-69
2021/11/17 04:47:39;;;;;;;30.35;18.17;;;5.60;99.90;;;;;;4983176;28;20097;-66
2021/11/17 04:50:18;;;;;;;27.90;17.00;;;5.50;99.90;;;;;;4972845;28;20533;-70
2021/11/17 04:53:03;;;;;;;26.45;14.88;;;5.50;99.90;;;;;;4984602;28;20600;-65
2021/11/17 04:55:42;;;;;;;26.40;15.77;;;5.50;99.90;;;;;;4982894;28;20507;-64
2021/11/17 04:58:34;;;;;;;27.85;17.50;;;5.50;99.90;;;;;;4978118;28;20062;-66
2021/11/17 05:01:22;;;;;;;28.67;16.90;;;5.60;99.90;;;;;;4981490;28;20088;-68
2021/11/17 05:04:23;;;;;;;26.08;15.70;;;5.50;99.90;;;;;;4985857;28;20050;-64
2021/11/17 05:07:31;;;;;;;27.23;15.60;;;5.50;99.90;;;;;;4984132;28;20059;-68
2021/11/17 05:10:26;;;;;;;27.05;17.08;;;5.60;99.90;;;;;;4979603;28;20680;-71
2021/11/17 05:13:30;;;;;;;27.83;15.98;;;5.60;99.90;;;;;;4978284;28;20073;-65
2021/11/17 05:16:24;;;;;;;24.17;15.93;;;5.60;99.90;;;;;;4981734;28;20194;-65
2021/11/17 05:19:02;;;;;;;25.15;14.88;;;5.60;99.90;;;;;;4979316;28;20489;-67
2021/11/17 05:21:48;;;;;;;27.23;16.05;;;5.60;99.90;;;;;;4986228;28;20144;-66
2021/11/17 05:24:36;;;;;;;24.50;14.10;;;5.60;99.90;;;;;;4975615;28;20112;-65
2021/11/17 05:27:06;;;;;;;21.10;14.20;;;5.60;99.90;;;;;;4974628;28;20058;-65
2021/11/17 05:29:46;;;;;;;22.67;15.32;;;5.60;99.90;;;;;;4980821;28;20202;-65
2021/11/17 05:32:19;;;;;;;23.73;14.82;;;5.60;99.90;;;;;;4984842;28;20101;-66
2021/11/17 05:35:09;;;;;;;20.85;12.90;;;5.60;99.90;;;;;;4984825;28;20137;-65
2021/11/17 05:38:03;;;;;;;23.20;13.25;;;5.60;99.90;;;;;;4977764;28;20057;-66
2021/11/17 05:40:36;;;;;;;24.05;14.32;;;5.70;99.90;;;;;;4979074;28;20078;-64
2021/11/17 05:43:15;;;;;;;25.60;15.50;;;5.70;99.90;;;;;;4980057;28;20155;-65
2021/11/17 05:45:51;;;;;;;21.75;13.10;;;5.70;99.90;;;;;;4982146;28;20046;-66
2021/11/17 05:48:39;;;;;;;24.77;13.65;;;5.70;99.90;;;;;;4994716;28;20046;-65
2021/11/17 05:51:15;;;;;;;23.08;14.98;;;5.70;99.90;;;;;;4981074;28;20101;-65
2021/11/17 05:53:54;;;;;;;22.10;14.10;;;5.70;99.90;;;;;;4983498;28;21238;-67
2021/11/17 05:56:40;;;;;;;21.70;14.48;;;5.70;99.90;;;;;;4983691;28;20069;-66
2021/11/17 05:59:28;;;;;;;20.70;13.40;;;5.80;99.90;;;;;;4983647;28;20094;-66
2021/11/17 06:02:07;;;;;;;19.70;12.40;;;5.80;99.90;;;;;;4982084;28;20039;-65
2021/11/17 06:04:37;;;;;;;22.38;13.02;;;5.80;99.90;;;;;;4980536;28;20042;-67
2021/11/17 06:07:04;;;;;;;22.67;15.20;;;5.80;99.90;;;;;;4981607;28;20133;-64
2021/11/17 06:09:30;;;;;;;22.40;12.43;;;5.80;99.90;;;;;;4985925;28;20038;-74
2021/11/17 06:12:04;;;;;;;24.50;14.02;;;5.90;99.90;;;;;;4982718;28;20465;-67
2021/11/17 06:14:38;;;;;;;18.58;13.30;;;5.90;99.90;;;;;;4979146;28;20062;-67
2021/11/17 06:17:14;;;;;;;22.15;13.05;;;5.90;99.90;;;;;;4982970;28;20137;-66
2021/11/17 06:19:44;;;;;;;21.30;11.23;;;5.90;99.90;;;;;;4981584;28;20084;-67
2021/11/17 06:22:13;;;;;;;22.20;13.02;;;5.90;99.90;;;;;;4982958;28;20064;-67
2021/11/17 06:24:40;;;;;;;21.20;12.30;;;5.90;99.90;;;;;;4981117;28;20062;-66
2021/11/17 06:27:14;;;;;;;14.75;10.85;;;6.00;99.90;;;;;;4982076;28;20038;-64
2021/11/17 06:29:45;;;;;;;19.20;12.48;;;5.90;99.90;;;;;;4985539;28;20132;-64
2021/11/17 06:32:13;;;;;;;17.70;11.07;;;5.90;99.90;;;;;;4977756;28;20137;-67
2021/11/17 06:34:49;;;;;;;15.57;10.15;;;6.00;99.90;;;;;;4978336;28;20052;-66
2021/11/17 06:37:20;;;;;;;18.55;11.68;;;6.00;99.90;;;;;;4981319;28;20046;-65
2021/11/17 06:39:49;;;;;;;18.75;11.05;;;6.00;99.90;;;;;;4987759;28;20218;-68
2021/11/17 06:42:35;;;;;;;20.77;10.98;;;6.10;99.90;;;;;;4983531;28;20404;-65
2021/11/17 06:45:39;;;;;;;19.00;11.82;;;6.10;99.90;;;;;;4987875;28;20050;-67
2021/11/17 06:48:08;;;;;;;17.35;11.02;;;6.10;99.90;;;;;;4984835;28;20046;-67
2021/11/17 06:50:37;;;;;;;19.48;10.63;;;6.10;99.90;;;;;;4986424;28;20046;-67
2021/11/17 06:53:05;;;;;;;18.00;10.35;;;6.20;99.90;;;;;;4990478;28;20140;-64
2021/11/17 06:55:32;;;;;;;18.38;10.65;;;6.20;99.90;;;;;;4987960;28;20069;-66
2021/11/17 06:57:59;;;;;;;18.85;10.93;;;6.20;99.90;;;;;;4984648;28;20476;-64
2021/11/17 07:00:29;;;;;;;19.70;12.02;;;6.30;99.90;;;;;;4987807;28;20240;-64
2021/11/17 07:02:57;;;;;;;16.40;9.68;;;6.30;99.90;;;;;;4989859;28;20456;-74
2021/11/17 07:05:25;;;;;;;19.00;10.13;;;6.40;99.90;;;;;;4987003;28;20539;-66
2021/11/17 07:07:54;;;;;;;18.60;11.55;;;6.40;99.90;;;;;;4988660;28;20611;-64
2021/11/17 07:10:25;;;;;;;19.35;10.63;;;6.40;99.90;;;;;;4987785;28;20508;-64
2021/11/17 07:12:54;;;;;;;17.98;10.77;;;6.50;99.90;;;;;;4987535;28;20096;-64
2021/11/17 07:15:22;;;;;;;18.38;9.45;;;6.50;99.90;;;;;;4987996;28;20787;-65
2021/11/17 07:17:49;;;;;;;19.30;9.77;;;6.50;99.90;;;;;;4988184;28;20062;-68
2021/11/17 07:20:17;;;;;;;23.55;8.93;;;6.60;99.90;;;;;;4986559;28;21602;-65
2021/11/17 07:22:44;;;;;;;15.93;9.10;;;6.60;99.90;;;;;;4982056;28;20074;-66
2021/11/17 07:25:16;;;;;;;20.85;8.73;;;6.60;99.90;;;;;;4991203;28;20127;-68
2021/11/17 07:27:43;;;;;;;14.52;8.70;;;6.60;99.90;;;;;;4988378;28;20076;-71
2021/11/17 07:30:13;;;;;;;16.38;9.00;;;6.60;99.90;;;;;;4986253;28;20062;-73
2021/11/17 07:32:40;;;;;;;;;;;6.60;99.90;;;;;;4989704;28;20062;-64
2021/11/17 07:35:08;;;;;;;12.77;6.35;;;6.60;99.90;;;;;;4986294;28;20371;-64
2021/11/17 07:37:36;;;;;;;17.15;7.38;;;6.60;99.90;;;;;;4985493;28;20058;-65
2021/11/17 07:40:06;;;;;;;17.25;6.90;;;6.60;99.90;;;;;;4987083;28;20149;-67
2021/11/17 07:42:33;;;;;;;13.93;8.07;;;6.60;99.90;;;;;;4983013;28;20105;-64
2021/11/17 07:45:00;;;;;;;10.95;6.05;;;6.60;99.90;;;;;;4986155;28;20108;-64
2021/11/17 07:47:27;;;;;;;14.55;7.75;;;6.50;99.90;;;;;;4986922;28;20138;-65
2021/11/17 07:49:54;;;;;;;11.90;6.97;;;6.60;99.90;;;;;;4985188;28;20337;-64
2021/11/17 07:52:20;;;;;;;13.73;6.75;;;6.60;99.90;;;;;;4987830;28;20049;-67
2021/11/17 07:54:47;;;;;;;11.82;6.05;;;6.60;99.90;;;;;;4986638;28;20065;-67
2021/11/17 07:57:16;;;;;;;9.95;6.72;;;6.60;99.90;;;;;;4985497;28;20373;-65
2021/11/17 07:59:43;;;;;;;11.30;7.47;;;6.60;99.90;;;;;;4984978;28;20054;-69
2021/11/17 08:02:12;;;;;;;10.05;5.75;;;6.60;99.90;;;;;;4988748;28;20412;-64
2021/11/17 08:04:41;;;;;;;9.50;6.22;;;6.60;99.90;;;;;;4982823;28;20058;-67
2021/11/17 08:07:19;;;;;;;13.05;6.78;;;6.60;99.90;;;;;;4990442;28;20076;-64
2021/11/17 08:09:48;;;;;;;13.40;6.22;;;6.60;99.90;;;;;;4986316;28;20073;-68
2021/11/17 08:12:16;;;;;;;10.35;5.60;;;6.60;99.90;;;;;;4986851;28;20419;-65
2021/11/17 08:14:43;;;;;;;16.73;7.40;;;6.60;99.90;;;;;;5000381;28;20120;-69
2021/11/17 08:17:10;;;;;;;14.38;7.60;;;6.60;99.90;;;;;;4989358;28;20074;-64
2021/11/17 08:19:37;;;;;;;12.18;5.05;;;6.60;99.90;;;;;;4986732;28;20126;-70
2021/11/17 08:22:08;;;;;;;11.23;5.63;;;6.60;99.90;;;;;;4988780;28;20180;-71
2021/11/17 08:24:38;;;;;;;9.73;5.40;;;6.70;99.90;;;;;;4984653;28;20049;-66
2021/11/17 08:27:12;;;;;;;10.20;5.18;;;6.70;99.90;;;;;;4990364;28;20128;-65
2021/11/17 08:29:42;;;;;;;13.65;6.93;;;6.70;99.90;;;;;;4986692;28;20547;-74
2021/11/17 08:32:09;;;;;;;15.85;5.90;;;6.70;99.90;;;;;;4987149;28;20050;-66
2021/11/17 08:34:38;;;;;;;13.30;6.45;;;6.60;99.90;;;;;;4985618;28;20228;-64
2021/11/17 08:37:06;;;;;;;11.68;5.82;;;6.60;99.90;;;;;;4987249;28;20046;-67
2021/11/17 08:39:33;;;;;;;11.25;6.25;;;6.60;99.90;;;;;;4984856;28;20453;-69
2021/11/17 08:42:00;;;;;;;8.95;6.15;;;6.60;99.90;;;;;;4983230;28;20137;-68
2021/11/17 08:44:27;;;;;;;13.07;7.53;;;6.60;99.90;;;;;;4986002;28;20085;-67
2021/11/17 08:46:55;;;;;;;14.60;7.88;;;6.60;99.90;;;;;;4984576;28;20345;-73
2021/11/17 08:49:22;;;;;;;12.10;6.82;;;6.60;99.90;;;;;;4986268;28;20053;-68
2021/11/17 08:51:49;;;;;;;16.17;8.23;;;6.60;99.90;;;;;;4985821;28;20054;-68
2021/11/17 08:54:16;;;;;;;11.52;6.40;;;6.60;99.90;;;;;;4983030;28;20137;-65
2021/11/17 08:56:43;;;;;;;12.90;6.32;;;6.70;99.90;;;;;;4985577;28;20120;-69
2021/11/17 08:59:10;;;;;;;11.95;7.80;;;6.70;99.90;;;;;;4987123;28;20050;-66
2021/11/17 09:01:37;;;;;;;10.90;6.57;;;6.70;99.90;;;;;;4984929;28;20034;-75
2021/11/17 09:04:08;;;;;;;15.85;8.40;;;6.70;99.90;;;;;;4988452;28;20077;-70
2021/11/17 09:06:36;;;;;;;14.82;7.13;;;6.70;99.90;;;;;;4985904;28;20038;-65
2021/11/17 09:09:06;;;;;;;12.25;6.88;;;6.70;99.90;;;;;;5001569;28;20133;-65
2021/11/17 09:11:38;;;;;;;14.80;7.78;;;6.70;99.90;;;;;;4984534;28;20420;-68
2021/11/17 09:14:06;;;;;;;18.00;7.25;;;6.70;99.90;;;;;;4983889;28;20136;-70
2021/11/17 09:16:33;;;;;;;13.30;7.97;;;6.70;99.90;;;;;;4984664;28;20081;-65
2021/11/17 09:19:03;;;;;;;10.48;6.72;;;6.70;99.90;;;;;;4986880;28;20133;-64
2021/11/17 09:21:33;;;;;;;13.00;6.83;;;6.60;99.90;;;;;;4985176;28;20061;-64
2021/11/17 09:24:06;;;;;;;10.35;7.28;;;6.60;99.90;;;;;;4985464;28;20811;-65
2021/11/17 09:26:35;;;;;;;12.18;7.45;;;6.60;99.90;;;;;;4975572;28;20201;-65
2021/11/17 09:29:04;;;;;;;10.63;6.72;;;6.60;99.90;;;;;;4984379;28;20050;-68
2021/11/17 09:31:33;;;;;;;11.50;7.07;;;6.60;99.90;;;;;;4983984;28;21398;-66
2021/11/17 09:34:01;;;;;;;13.57;5.25;;;6.60;99.90;;;;;;4985247;28;20069;-66
2021/11/17 09:36:30;;;;;;;8.65;4.93;;;6.60;99.90;;;;;;4980769;28;20109;-64
2021/11/17 09:38:58;;;;;;;9.15;5.13;;;6.60;99.90;;;;;;4979713;28;20141;-65
2021/11/17 09:41:29;;;;;;;8.32;4.38;;;6.60;99.90;;;;;;4983401;28;20054;-67
2021/11/17 09:44:00;;;;;;;7.55;5.22;;;6.50;99.90;;;;;;4983329;28;20065;-65
2021/11/17 09:46:34;;;;;;;9.82;5.88;;;6.50;99.90;;;;;;4979153;28;20052;-66
2021/11/17 09:49:05;;;;;;;9.93;6.22;;;6.60;99.90;;;;;;4985452;28;20128;-73
2021/11/17 09:51:39;;;;;;;7.85;4.97;;;6.60;99.90;;;;;;4984597;28;20054;-66
2021/11/17 09:54:24;;;;;;;10.13;5.18;;;6.60;99.90;;;;;;4984760;28;20050;-65
2021/11/17 09:56:57;;;;;;;7.72;5.53;;;6.60;99.90;;;;;;4983293;28;20511;-68
2021/11/17 09:59:42;;;;;;;10.68;6.07;;;6.60;99.90;;;;;;4985915;28;20082;-65
2021/11/17 10:02:31;;;;;;;10.63;5.60;;;6.60;99.90;;;;;;4984857;28;20174;-64
2021/11/17 10:05:13;;;;;;;10.77;5.27;;;6.60;99.90;;;;;;4990393;28;20166;-66
2021/11/17 10:13:07;;;;;;;6.18;3.95;;;6.60;99.90;;;;;;4985962;28;20104;-68
2021/11/17 10:15:38;;;;;;;7.03;4.82;;;6.60;99.90;;;;;;4985158;28;20062;-67
2021/11/17 10:18:18;;;;;;;6.90;4.45;;;6.60;99.90;;;;;;4988545;28;20050;-65
2021/11/17 10:20:48;;;;;;;7.50;4.40;;;6.60;99.90;;;;;;4985104;28;20059;-68
2021/11/17 10:23:18;;;;;;;7.82;3.95;;;6.60;99.90;;;;;;4990246;28;20508;-64
2021/11/17 10:25:51;;;;;;;7.60;4.28;;;6.60;99.90;;;;;;4986181;28;20074;-72
2021/11/17 10:28:57;;;;;;;10.60;4.50;;;6.60;99.90;;;;;;4980347;28;20453;-67
2021/11/17 10:31:49;;;;;;;6.13;3.92;;;6.60;99.90;;;;;;4987920;28;20097;-68
2021/11/17 10:34:25;;;;;;;6.65;4.38;;;6.50;99.90;;;;;;4984824;28;20054;-64
2021/11/17 10:37:23;;;;;;;6.43;5.00;;;6.50;99.90;;;;;;4987777;28;20066;-64
2021/11/17 10:39:52;;;;;;;6.57;5.25;;;6.50;99.90;;;;;;4984182;28;20049;-65
2021/11/17 10:42:19;;;;;;;8.70;4.30;;;6.50;99.90;;;;;;4984712;28;20054;-69
2021/11/17 10:44:49;;;;;;;7.85;5.18;;;6.50;99.90;;;;;;4991066;28;20050;-64
2021/11/17 10:47:32;;;;;;;9.02;4.85;;;6.50;99.90;;;;;;4987601;28;20046;-65
2021/11/17 10:50:27;;;;;;;9.10;6.22;;;6.50;99.90;;;;;;4998456;28;20054;-69
2021/11/17 10:53:24;;;;;;;9.45;5.57;;;6.50;99.90;;;;;;4985268;28;20054;-64
2021/11/17 10:55:54;;;;;;;10.23;5.22;;;6.50;99.90;;;;;;4983575;28;20046;-70
2021/11/17 10:58:25;;;;;;;9.02;5.45;;;6.40;99.90;;;;;;4985241;28;20375;-70
2021/11/17 11:00:58;;;;;;;12.38;5.95;;;6.40;99.90;;;;;;4985517;28;20077;-64
2021/11/17 11:03:33;;;;;;;11.65;7.28;;;6.40;99.90;;;;;;4977539;28;20126;-64
2021/11/17 11:06:15;;;;;;;10.48;6.45;;;6.40;99.90;;;;;;4990158;28;20085;-64
2021/11/17 11:08:59;;;;;;;11.50;7.22;;;6.40;99.90;;;;;;4988159;28;20118;-79
2021/11/17 11:11:26;;;;;;;11.32;7.70;;;6.40;99.90;;;;;;4989007;28;20062;-65
2021/11/17 11:14:15;;;;;;;13.73;9.25;;;6.40;99.90;;;;;;4984522;28;20125;-68
2021/11/17 11:16:44;;;;;;;14.73;6.63;;;6.40;99.90;;;;;;4979089;28;20441;-67
2021/11/17 11:19:12;;;;;;;11.38;6.55;;;6.40;99.90;;;;;;4984074;28;20129;-65
2021/11/17 11:21:42;;;;;;;15.88;8.10;;;6.40;99.90;;;;;;4985699;28;20158;-66
2021/11/17 11:24:31;;;;;;;9.75;7.25;;;6.40;99.90;;;;;;4984456;28;20054;-64
2021/11/17 11:26:58;;;;;;;14.25;8.65;;;6.40;99.90;;;;;;4979038;28;20100;-69
2021/11/17 11:29:29;;;;;;;10.77;7.43;;;6.40;99.90;;;;;;4986943;28;20077;-69
2021/11/17 11:32:00;;;;;;;14.50;8.93;;;6.40;99.90;;;;;;4987622;28;20053;-68
2021/11/17 11:34:42;;;;;;;11.45;7.35;;;6.40;99.90;;;;;;4975215;28;20057;-64
2021/11/17 11:37:23;;;;;;;10.38;5.85;;;6.40;99.90;;;;;;4983304;28;20062;-73
2021/11/17 11:40:14;;;;;;;16.10;7.68;;;6.40;99.90;;;;;;4980261;28;20066;-65
2021/11/17 11:43:00;;;;;;;14.52;7.72;;;6.40;99.90;;;;;;4979251;28;20156;-70
2021/11/17 11:45:26;;;;;;;13.48;7.85;;;6.50;99.90;;;;;;4984675;28;20130;-66
2021/11/17 11:48:20;;;;;;;15.85;8.02;;;6.50;99.90;;;;;;4989469;28;20091;-64
2021/11/17 11:50:53;;;;;;;15.85;9.30;;;6.50;99.90;;;;;;4995884;28;20511;-74
2021/11/17 11:53:29;;;;;;;11.50;7.22;;;6.50;99.90;;;;;;4992096;28;20042;-67
2021/11/17 11:56:00;;;;;;;14.20;7.38;;;6.50;99.90;;;;;;4994502;28;20049;-66
2021/11/17 11:58:27;;;;;;;17.42;9.32;;;6.50;99.90;;;;;;4989899;28;20058;-64
2021/11/17 12:01:17;;;;;;;14.85;7.35;;;6.50;99.90;;;;;;4990118;28;20121;-65
2021/11/17 12:03:51;;;;;;;12.43;8.37;;;6.50;99.90;;;;;;4975769;28;20050;-69
2021/11/17 12:06:29;;;;;;;14.30;8.50;;;6.50;99.90;;;;;;4980735;28;20093;-65
2021/11/17 12:09:00;;;;;;;15.38;8.18;;;6.50;99.90;;;;;;4993802;28;20049;-65
2021/11/17 12:11:31;;;;;;;18.45;9.70;;;6.50;99.90;;;;;;4985767;28;20061;-67
2021/11/17 12:14:07;;;;;;;14.90;7.95;;;6.50;99.90;;;;;;4987126;28;20672;-73
2021/11/17 12:16:42;;;;;;;13.75;8.70;;;6.50;99.90;;;;;;4987038;28;20046;-65
2021/11/17 12:19:20;;;;;;;12.38;7.45;;;6.50;99.90;;;;;;4988454;28;20034;-66
2021/11/17 12:22:38;;;;;;;16.55;9.13;;;6.50;99.90;;;;;;4982251;28;20047;-64
2021/11/17 12:25:11;;;;;;;13.88;8.18;;;6.50;99.90;;;;;;4970951;28;20752;-69
2021/11/17 12:27:40;;;;;;;18.90;8.73;;;6.50;99.90;;;;;;4989714;28;20085;-66
2021/11/17 12:30:12;;;;;;;13.60;8.68;;;6.50;99.90;;;;;;4990493;28;20153;-65
2021/11/17 12:32:55;;;;;;;17.10;8.57;;;6.50;99.90;;;;;;4987556;28;20571;-69
2021/11/17 12:35:30;;;;;;;18.25;9.38;;;6.50;99.90;;;;;;4989276;28;20038;-65
2021/11/17 12:38:07;;;;;;;19.67;10.90;;;6.50;99.90;;;;;;4989320;28;20070;-65
2021/11/17 12:40:48;;;;;;;17.10;9.10;;;6.40;99.90;;;;;;4981410;28;20113;-66
2021/11/17 12:43:27;;;;;;;18.50;10.23;;;6.40;99.90;;;;;;4990474;28;20097;-66
2021/11/17 12:46:20;;;;;;;16.00;10.07;;;6.40;99.90;;;;;;4990664;28;20046;-64
2021/11/17 12:48:47;;;;;;;18.17;8.73;;;6.40;99.90;;;;;;4985529;28;20440;-68
2021/11/17 12:51:29;;;;;;;20.20;10.07;;;6.40;99.90;;;;;;4988942;28;20070;-66
2021/11/17 12:54:15;;;;;;;23.10;11.77;;;6.40;99.90;;;;;;4999055;28;20261;-68
2021/11/17 12:56:47;;;;;;;17.63;11.52;;;6.40;99.90;;;;;;4985266;28;20042;-64
2021/11/17 12:59:19;;;;;;;21.00;10.13;;;6.40;99.90;;;;;;4986163;28;20042;-70
2021/11/17 13:01:53;;;;;;;15.18;10.05;;;6.40;99.90;;;;;;4989417;28;20100;-64
2021/11/17 13:04:30;;;;;;;17.13;9.50;;;6.40;99.90;;;;;;4989522;28;20046;-67
2021/11/17 13:07:04;;;;;;;19.02;12.00;;;6.40;99.90;;;;;;4986812;28;20487;-64
2021/11/17 13:09:55;;;;;;;22.95;10.90;;;6.40;99.90;;;;;;4986051;28;20072;-64
2021/11/17 13:12:31;;;;;;;21.60;12.40;;;6.40;99.90;;;;;;4982706;28;20416;-65
2021/11/17 13:15:04;;;;;;;19.23;10.48;;;6.40;99.90;;;;;;4985460;28;20042;-67
2021/11/17 13:17:32;;;;;;;26.30;11.65;;;6.40;99.90;;;;;;4987641;28;20120;-65
2021/11/17 13:20:14;;;;;;;20.20;12.73;;;6.40;99.90;;;;;;4988522;28;20042;-65
2021/11/17 13:22:47;;;;;;;23.10;12.65;;;6.40;99.90;;;;;;4975534;28;20113;-65
2021/11/17 13:25:30;;;;;;;24.67;12.32;;;6.40;99.90;;;;;;5002662;28;20452;-67
2021/11/17 13:28:05;;;;;;;24.10;13.07;;;6.40;99.90;;;;;;4987223;28;20080;-64
2021/11/17 13:30:46;;;;;;;25.10;13.15;;;6.40;99.90;;;;;;4986893;28;20034;-65
2021/11/17 13:33:22;;;;;;;24.50;16.10;;;6.40;99.90;;;;;;4988656;28;20088;-68
2021/11/17 13:35:58;;;;;;;20.30;12.90;;;6.40;99.90;;;;;;4988611;28;20070;-67
2021/11/17 13:38:25;;;;;;;27.20;14.63;;;6.40;99.90;;;;;;4986404;28;20101;-64
2021/11/17 13:40:59;;;;;;;29.73;17.38;;;6.30;99.90;;;;;;4991115;28;20404;-70
2021/11/17 13:43:27;;;;;;;36.22;20.13;;;6.40;99.90;;;;;;4987488;28;20445;-68
2021/11/17 13:45:57;;;;;;;39.70;20.23;;;6.40;99.90;;;;;;4988757;28;20046;-68
2021/11/17 13:48:30;;;;;;;37.22;20.77;;;6.40;99.90;;;;;;4987296;28;20149;-64
2021/11/17 13:50:57;;;;;;;34.63;21.50;;;6.40;99.90;;;;;;4987398;28;20042;-65
2021/11/17 13:53:25;;;;;;;32.83;20.02;;;6.40;99.90;;;;;;4989086;28;20557;-64
2021/11/17 13:56:03;;;;;;;39.53;21.38;;;6.30;99.90;;;;;;4985372;28;20042;-65
2021/11/17 13:58:31;;;;;;;35.25;20.65;;;6.30;99.90;;;;;;4985330;28;20042;-64
2021/11/17 14:00:58;;;;;;;43.30;20.92;;;6.30;99.90;;;;;;4987258;28;20116;-65
2021/11/17 14:03:26;;;;;;;37.97;22.02;;;6.30;99.90;;;;;;4987253;28;20043;-66
2021/11/17 14:05:53;;;;;;;37.72;21.92;;;6.20;99.90;;;;;;4988314;28;20112;-65
2021/11/17 14:08:22;;;;;;;41.50;22.10;;;6.20;99.90;;;;;;4984641;28;20550;-65
2021/11/17 14:10:49;;;;;;;34.97;18.35;;;6.20;99.90;;;;;;4987915;28;20412;-67
2021/11/17 14:13:15;;;;;;;33.00;19.58;;;6.20;99.90;;;;;;4988025;28;20467;-66
2021/11/17 14:15:42;;;;;;;34.20;19.75;;;6.20;99.90;;;;;;4988972;28;20042;-65
2021/11/17 14:18:12;;;;;;;37.80;19.77;;;6.20;99.90;;;;;;4988170;28;20141;-66
2021/11/17 14:20:40;;;;;;;33.78;17.17;;;6.20;99.90;;;;;;5000394;28;20413;-65
2021/11/17 14:23:08;;;;;;;31.80;17.58;;;6.10;99.90;;;;;;4986517;28;20080;-65
2021/11/17 14:25:35;;;;;;;30.30;16.15;;;6.20;99.90;;;;;;4986569;28;20048;-65
2021/11/17 14:28:06;;;;;;;34.35;19.05;;;6.10;99.90;;;;;;4988479;28;20091;-69
2021/11/17 14:30:43;;;;;;;27.35;15.75;;;6.20;99.90;;;;;;4986334;28;20082;-65
2021/11/17 14:33:18;;;;;;;25.98;14.70;;;6.10;99.90;;;;;;4981687;28;20489;-68
2021/11/17 14:35:46;;;;;;;27.35;17.15;;;6.10;99.90;;;;;;4987049;28;20046;-65
2021/11/17 14:38:17;;;;;;;24.48;16.75;;;6.10;99.90;;;;;;4987993;28;20069;-65
2021/11/17 14:40:47;;;;;;;27.55;17.35;;;6.10;99.90;;;;;;4984587;28;20414;-65
2021/11/17 14:43:16;;;;;;;28.08;17.67;;;6.10;99.90;;;;;;4987996;28;20476;-71
2021/11/17 14:45:45;;;;;;;37.03;18.33;;;6.10;99.90;;;;;;4987524;28;20050;-67
2021/11/17 14:48:13;;;;;;;26.85;16.38;;;6.10;99.90;;;;;;4983515;28;20723;-66
2021/11/17 14:50:45;;;;;;;26.75;15.27;;;6.10;99.90;;;;;;4986980;28;20038;-65
2021/11/17 14:53:31;;;;;;;23.75;16.17;;;6.10;99.90;;;;;;4986823;28;20045;-69
2021/11/17 14:55:58;;;;;;;29.60;19.58;;;6.10;99.90;;;;;;4986486;28;20070;-65
2021/11/17 14:58:25;;;;;;;23.42;14.65;;;6.00;99.90;;;;;;4987714;28;20047;-66
2021/11/17 15:00:59;;;;;;;25.55;13.95;;;6.00;99.90;;;;;;4988961;28;20059;-65
2021/11/17 15:03:26;;;;;;;24.70;16.02;;;6.00;99.90;;;;;;4989785;28;20038;-66
2021/11/17 15:05:53;;;;;;;23.13;14.80;;;6.00;99.90;;;;;;4991807;28;20082;-69
2021/11/17 15:08:20;;;;;;;23.25;13.55;;;6.10;99.90;;;;;;4986942;28;20046;-65
2021/11/17 15:10:47;;;;;;;21.95;12.80;;;6.00;99.90;;;;;;4987996;28;20125;-65
2021/11/17 15:13:15;;;;;;;19.67;12.80;;;6.10;99.90;;;;;;4984467;28;20389;-68
2021/11/17 15:15:46;;;;;;;20.65;13.70;;;6.10;99.90;;;;;;4987369;28;20092;-65
2021/11/17 15:18:20;;;;;;;23.33;14.35;;;6.10;99.90;;;;;;4989761;28;20039;-65
2021/11/17 15:20:47;;;;;;;22.27;13.57;;;6.10;99.90;;;;;;4992169;28;20038;-65
2021/11/17 15:23:15;;;;;;;24.80;15.60;;;6.10;99.90;;;;;;4990919;28;20054;-66
2021/11/17 15:25:44;;;;;;;21.17;13.23;;;6.10;99.90;;;;;;4988292;28;20034;-66
2021/11/17 15:28:28;;;;;;;19.23;13.17;;;6.10;99.90;;;;;;4987344;28;20613;-68
2021/11/17 15:31:03;;;;;;;19.23;11.98;;;6.10;99.90;;;;;;4987794;28;20046;-67
2021/11/17 15:33:31;;;;;;;17.67;11.18;;;6.10;99.90;;;;;;4990483;28;20478;-65
2021/11/17 15:35:59;;;;;;;17.42;9.90;;;6.10;99.90;;;;;;4984988;28;20070;-65
2021/11/17 15:38:26;;;;;;;13.18;9.68;;;6.10;99.90;;;;;;4988221;28;20031;-66
2021/11/17 15:40:59;;;;;;;12.85;8.27;;;6.10;99.90;;;;;;4990468;28;20117;-68
2021/11/17 15:43:27;;;;;;;11.10;7.82;;;6.10;99.90;;;;;;4987020;28;20470;-66
2021/11/17 15:45:55;;;;;;;10.13;7.25;;;6.10;99.90;;;;;;4989066;28;20058;-65
2021/11/17 15:48:24;;;;;;;13.50;8.90;;;6.10;99.90;;;;;;4988427;28;20441;-68
2021/11/17 15:51:01;;;;;;;15.50;9.38;;;6.10;99.90;;;;;;4989647;28;20179;-66
2021/11/17 15:53:28;;;;;;;13.32;7.20;;;6.10;99.90;;;;;;4990528;28;20038;-65
2021/11/17 15:55:56;;;;;;;13.40;6.57;;;6.10;99.90;;;;;;4988562;28;20061;-68
2021/11/17 15:58:24;;;;;;;7.30;5.40;;;6.10;99.90;;;;;;4982698;28;24253;-67